createdAt,value
2023-01-09T00:01:32.839Z,1.00
2023-01-09T00:04:02.833Z,1.00
2023-01-09T00:06:30.985Z,1.00
2023-01-09T00:08:59.162Z,1.00
2023-01-09T00:11:27.852Z,1.00
2023-01-09T00:13:56.078Z,1.00
2023-01-09T00:16:24.240Z,1.00
2023-01-09T00:18:53.396Z,1.00
2023-01-09T00:21:22.962Z,1.00
2023-01-09T00:23:51.139Z,1.00
2023-01-09T00:26:20.704Z,1.00
2023-01-09T00:28:50.500Z,1.00
2023-01-09T00:31:19.416Z,1.00
2023-01-09T00:33:53.713Z,1.00
2023-01-09T00:36:23.395Z,1.00
2023-01-09T00:38:51.832Z,1.00
2023-01-09T00:41:22.731Z,1.00
2023-01-09T00:43:54.075Z,1.00
2023-01-09T00:46:25.947Z,1.00
2023-01-09T00:48:54.499Z,1.00
2023-01-09T00:51:25.033Z,1.00
2023-01-09T00:53:53.914Z,1.00
2023-01-09T00:56:23.884Z,1.00
2023-01-09T00:58:53.392Z,1.00
2023-01-09T01:01:21.602Z,1.00
2023-01-09T01:03:49.789Z,1.00
2023-01-09T01:06:35.398Z,1.00
2023-01-09T01:09:05.912Z,1.00
2023-01-09T01:11:34.589Z,1.00
2023-01-09T01:14:02.725Z,1.00
2023-01-09T01:16:30.882Z,1.00
2023-01-09T01:18:59.058Z,1.00
2023-01-09T01:21:27.201Z,1.00
2023-01-09T01:23:55.353Z,1.00
2023-01-09T01:26:24.883Z,1.00
2023-01-09T01:28:53.005Z,1.00
2023-01-09T01:31:21.430Z,1.00
2023-01-09T01:33:49.584Z,1.00
2023-01-09T01:36:18.164Z,1.00
2023-01-09T01:38:47.956Z,1.00
2023-01-09T01:41:29.670Z,1.00
2023-01-09T01:44:01.919Z,1.00
2023-01-09T01:46:31.271Z,1.00
2023-01-09T01:49:05.101Z,1.00
2023-01-09T01:51:38.806Z,1.00
2023-01-09T01:54:13.563Z,1.00
2023-01-09T01:56:46.106Z,1.00
2023-01-09T01:59:20.668Z,1.00
2023-01-09T02:01:52.238Z,1.00
2023-01-09T02:04:20.633Z,1.00
2023-01-09T02:06:52.034Z,1.00
2023-01-09T02:09:22.888Z,1.00
2023-01-09T02:11:53.440Z,1.00
2023-01-09T02:14:27.197Z,1.00
2023-01-09T02:17:08.143Z,1.00
2023-01-09T02:20:06.260Z,1.00
2023-01-09T02:22:45.978Z,1.00
2023-01-09T02:25:45.272Z,1.00
2023-01-09T02:28:52.543Z,1.00
2023-01-09T02:31:29.167Z,1.00
2023-01-09T02:34:03.356Z,1.00
2023-01-09T02:36:37.566Z,1.00
2023-01-09T02:39:23.195Z,1.00
2023-01-09T02:41:59.614Z,1.00
2023-01-09T02:44:29.744Z,1.00
2023-01-09T02:47:05.018Z,1.00
2023-01-09T02:49:34.967Z,1.00
2023-01-09T02:52:25.607Z,1.00
2023-01-09T02:55:04.770Z,1.00
2023-01-09T02:57:49.536Z,1.00
2023-01-09T03:00:31.581Z,1.00
2023-01-09T03:03:11.027Z,1.00
2023-01-09T03:05:44.162Z,1.00
2023-01-09T03:08:17.459Z,1.00
2023-01-09T03:10:51.913Z,1.00
2023-01-09T03:13:22.527Z,1.00
2023-01-09T03:15:53.127Z,1.00
2023-01-09T03:18:25.762Z,1.00
2023-01-09T03:20:55.354Z,1.00
2023-01-09T03:23:23.688Z,1.00
2023-01-09T03:25:51.853Z,1.00
2023-01-09T03:28:27.285Z,1.00
2023-01-09T03:30:55.639Z,1.00
2023-01-09T03:33:25.291Z,1.00
2023-01-09T03:35:53.525Z,1.00
2023-01-09T03:38:21.717Z,1.00
2023-01-09T03:40:49.885Z,1.00
2023-01-09T03:43:18.101Z,1.00
2023-01-09T03:45:46.316Z,1.00
2023-01-09T03:48:14.589Z,1.00
2023-01-09T03:50:46.017Z,1.00
2023-01-09T03:53:14.297Z,1.00
2023-01-09T03:55:45.256Z,1.00
2023-01-09T03:58:13.698Z,1.00
2023-01-09T04:00:42.155Z,1.00
2023-01-09T04:03:10.888Z,1.00
2023-01-09T04:05:39.425Z,1.00
2023-01-09T04:08:09.010Z,1.00
2023-01-09T04:10:37.182Z,1.00
2023-01-09T04:13:05.403Z,1.00
2023-01-09T04:15:33.582Z,1.00
2023-01-09T04:18:02.145Z,1.00
2023-01-09T04:20:30.269Z,1.00
2023-01-09T04:22:59.807Z,1.00
2023-01-09T04:25:29.434Z,1.00
2023-01-09T04:27:57.592Z,1.00
2023-01-09T04:30:26.286Z,1.00
2023-01-09T04:32:54.439Z,1.00
2023-01-09T04:35:22.698Z,1.00
2023-01-09T04:37:50.850Z,1.00
2023-01-09T04:40:19.856Z,1.00
2023-01-09T04:42:49.485Z,1.00
2023-01-09T04:45:17.680Z,1.00
2023-01-09T04:47:46.076Z,1.00
2023-01-09T04:50:14.433Z,1.00
2023-01-09T04:52:42.585Z,1.00
2023-01-09T04:55:13.835Z,1.00
2023-01-09T04:57:41.992Z,1.00
2023-01-09T05:00:12.596Z,1.00
2023-01-09T05:02:42.020Z,1.00
2023-01-09T05:05:11.814Z,1.00
2023-01-09T05:07:40.311Z,1.00
2023-01-09T05:10:10.285Z,1.00
2023-01-09T05:12:39.774Z,1.00
2023-01-09T05:15:09.701Z,1.00
2023-01-09T05:17:39.310Z,1.00
2023-01-09T05:20:08.213Z,1.00
2023-01-09T05:22:36.335Z,1.00
2023-01-09T05:25:04.526Z,1.00
2023-01-09T05:27:32.662Z,1.00
2023-01-09T05:30:00.790Z,1.00
2023-01-09T05:32:28.904Z,1.00
2023-01-09T05:34:58.425Z,1.00
2023-01-09T05:37:26.557Z,1.00
2023-01-09T05:39:54.732Z,1.00
2023-01-09T05:42:23.028Z,1.00
2023-01-09T05:44:51.185Z,1.00
2023-01-09T05:47:19.305Z,1.00
2023-01-09T05:49:47.444Z,1.00
2023-01-09T05:52:17.014Z,1.00
2023-01-09T05:54:45.173Z,1.00
2023-01-09T05:57:13.306Z,1.00
2023-01-09T05:59:41.444Z,1.00
2023-01-09T06:02:09.815Z,1.00
2023-01-09T06:04:38.045Z,1.00
2023-01-09T06:07:06.330Z,1.00
2023-01-09T06:09:35.821Z,1.00
2023-01-09T06:12:03.985Z,1.00
2023-01-09T06:14:32.137Z,1.00
2023-01-09T06:17:00.302Z,1.00
2023-01-09T06:19:28.441Z,1.00
2023-01-09T06:21:56.769Z,1.00
2023-01-09T06:24:24.929Z,1.00
2023-01-09T06:26:54.460Z,1.00
2023-01-09T06:29:22.607Z,1.00
2023-01-09T06:31:50.776Z,1.00
2023-01-09T06:34:18.885Z,1.00
2023-01-09T06:36:46.992Z,1.00
2023-01-09T06:39:15.144Z,1.00
2023-01-09T06:41:47.037Z,1.00
2023-01-09T06:44:18.018Z,1.00
2023-01-09T06:46:46.179Z,1.00
2023-01-09T06:49:14.426Z,1.00
2023-01-09T06:51:42.553Z,1.00
2023-01-09T06:54:10.731Z,1.00
2023-01-09T06:56:38.866Z,1.00
2023-01-09T06:59:07.019Z,1.00
2023-01-09T07:01:36.633Z,1.00
2023-01-09T07:04:06.282Z,1.00
2023-01-09T07:06:34.709Z,1.00
2023-01-09T07:09:02.887Z,1.00
2023-01-09T07:11:31.059Z,1.00
2023-01-09T07:13:59.373Z,1.00
2023-01-09T07:16:27.525Z,1.00
2023-01-09T07:18:57.085Z,1.00
2023-01-09T07:21:25.198Z,1.00
2023-01-09T07:23:53.348Z,1.00
2023-01-09T07:26:21.532Z,1.00
2023-01-09T07:28:49.622Z,1.00
2023-01-09T07:31:17.783Z,1.00
2023-01-09T07:33:45.966Z,1.00
2023-01-09T07:36:16.073Z,1.00
2023-01-09T07:38:44.171Z,1.00
2023-01-09T07:41:12.374Z,1.00
2023-01-09T07:43:40.782Z,1.00
2023-01-09T07:46:08.975Z,1.00
2023-01-09T07:48:37.334Z,1.00
2023-01-09T07:51:06.257Z,1.00
2023-01-09T07:53:35.825Z,1.00
2023-01-09T07:56:03.986Z,1.00
2023-01-09T07:58:32.217Z,1.00
2023-01-09T08:01:00.444Z,1.00
2023-01-09T08:03:28.580Z,1.00
2023-01-09T08:05:56.856Z,1.00
2023-01-09T08:08:25.117Z,1.00
2023-01-09T08:10:54.774Z,1.00
2023-01-09T08:13:22.945Z,1.00
2023-01-09T08:15:51.183Z,1.00
2023-01-09T08:18:19.423Z,1.00
2023-01-09T08:20:49.716Z,1.00
2023-01-09T08:23:17.925Z,1.00
2023-01-09T08:25:46.102Z,1.00
2023-01-09T08:28:15.591Z,1.00
2023-01-09T08:30:43.706Z,1.00
2023-01-09T08:33:11.949Z,1.00
2023-01-09T08:35:40.148Z,1.00
2023-01-09T08:38:08.254Z,1.00
2023-01-09T08:40:36.372Z,1.00
2023-01-09T08:43:22.030Z,1.00
2023-01-09T08:46:17.641Z,1.00
2023-01-09T08:48:45.831Z,1.00
2023-01-09T08:51:14.241Z,1.00
2023-01-09T08:53:42.391Z,1.00
2023-01-09T08:56:11.038Z,1.00
2023-01-09T08:58:39.232Z,1.00
2023-01-09T09:01:09.474Z,1.00
2023-01-09T09:03:37.588Z,1.00
2023-01-09T09:06:09.330Z,1.00
2023-01-09T09:08:37.488Z,1.00
2023-01-09T09:11:05.779Z,1.00
2023-01-09T09:13:34.071Z,1.00
2023-01-09T09:16:03.424Z,1.00
2023-01-09T09:18:33.085Z,1.00
2023-01-09T09:21:01.224Z,1.00
2023-01-09T09:23:31.134Z,1.00
2023-01-09T09:25:59.246Z,1.00
2023-01-09T09:28:27.374Z,1.00
2023-01-09T09:30:55.818Z,1.00
2023-01-09T09:33:23.961Z,1.00
2023-01-09T09:35:53.617Z,1.00
2023-01-09T09:38:21.809Z,1.00
2023-01-09T09:41:30.593Z,1.00
2023-01-09T09:44:30.240Z,1.00
2023-01-09T09:47:06.131Z,1.00
2023-01-09T09:49:44.707Z,1.00
2023-01-09T09:52:24.962Z,1.00
2023-01-09T09:54:53.368Z,1.00
2023-01-09T09:57:31.830Z,1.00
2023-01-09T10:00:00.045Z,1.00
2023-01-09T10:02:33.016Z,1.00
2023-01-09T10:05:06.451Z,1.00
2023-01-09T10:07:42.162Z,1.00
2023-01-09T10:10:18.154Z,1.00
2023-01-09T10:12:53.431Z,1.00
2023-01-09T10:15:32.185Z,1.00
2023-01-09T10:18:17.758Z,1.00
2023-01-09T10:20:57.931Z,1.00
2023-01-09T10:23:55.623Z,1.00
2023-01-09T10:26:31.457Z,1.00
2023-01-09T10:29:32.036Z,1.00
2023-01-09T10:32:12.751Z,1.00
2023-01-09T10:34:52.694Z,1.00
2023-01-09T10:37:24.492Z,1.00
2023-01-09T10:39:59.785Z,1.00
2023-01-09T10:42:36.790Z,1.00
2023-01-09T10:45:13.922Z,1.00
2023-01-09T10:47:43.809Z,1.00
2023-01-09T10:50:24.889Z,1.00
2023-01-09T10:55:48.812Z,1.00
2023-01-09T10:58:20.321Z,1.00
2023-01-09T11:00:50.085Z,1.00
2023-01-09T11:03:25.414Z,1.00
2023-01-09T11:05:55.727Z,1.00
2023-01-09T11:08:29.425Z,1.00
2023-01-09T11:10:58.832Z,1.00
2023-01-09T11:13:31.788Z,1.00
2023-01-09T11:16:10.024Z,1.00
2023-01-09T11:18:44.264Z,1.00
2023-01-09T11:21:29.332Z,1.00
2023-01-09T11:23:58.357Z,1.00
2023-01-09T11:26:33.414Z,1.00
2023-01-09T11:29:15.136Z,1.00
2023-01-09T11:31:51.605Z,1.00
2023-01-09T11:34:21.920Z,1.00
2023-01-09T11:36:52.433Z,1.00
2023-01-09T11:39:25.429Z,1.00
2023-01-09T11:41:55.570Z,1.00
2023-01-09T11:44:29.051Z,1.00
2023-01-09T11:46:57.286Z,1.00
2023-01-09T11:49:30.920Z,1.00
2023-01-09T11:52:17.920Z,1.00
2023-01-09T11:54:51.124Z,1.00
2023-01-09T11:57:22.782Z,1.00
2023-01-09T11:59:54.427Z,1.00
2023-01-09T12:02:56.401Z,1.00
2023-01-09T12:05:34.167Z,1.00
2023-01-09T12:08:26.619Z,1.00
2023-01-09T12:11:21.372Z,1.00
2023-01-09T12:14:07.714Z,1.00
2023-01-09T12:16:43.927Z,1.00
2023-01-09T12:19:37.891Z,1.00
2023-01-09T12:22:17.195Z,1.00
2023-01-09T12:25:01.891Z,1.00
2023-01-09T12:27:46.650Z,1.00
2023-01-09T12:30:41.001Z,1.00
2023-01-09T12:33:25.281Z,1.00
2023-01-09T12:36:01.712Z,1.00
2023-01-09T12:38:41.346Z,1.00
2023-01-09T12:41:28.829Z,1.00
2023-01-09T12:44:24.286Z,1.00
2023-01-09T12:47:11.085Z,1.00
2023-01-09T12:49:47.467Z,1.00
2023-01-09T12:52:23.411Z,1.00
2023-01-09T12:54:56.344Z,1.00
2023-01-09T12:57:31.419Z,1.00
2023-01-09T13:00:03.937Z,1.00
2023-01-09T13:02:36.244Z,1.00
2023-01-09T13:05:11.032Z,1.00
2023-01-09T13:07:43.626Z,1.00
2023-01-09T13:10:20.476Z,1.00
2023-01-09T13:12:51.141Z,1.00
2023-01-09T13:15:31.742Z,1.00
2023-01-09T13:18:07.329Z,1.00
2023-01-09T13:20:43.925Z,1.00
2023-01-09T13:23:18.533Z,1.00
2023-01-09T13:25:50.354Z,1.00
2023-01-09T13:28:22.444Z,1.00
2023-01-09T13:31:09.588Z,1.00
2023-01-09T13:33:39.288Z,1.00
2023-01-09T13:36:09.011Z,1.00
2023-01-09T13:38:39.529Z,1.00
2023-01-09T13:41:31.715Z,1.00
2023-01-09T13:44:02.182Z,1.00
2023-01-09T13:46:37.893Z,1.00
2023-01-09T13:49:06.306Z,1.00
2023-01-09T13:52:00.885Z,1.00
2023-01-09T13:55:04.772Z,1.00
2023-01-09T13:57:34.970Z,1.00
2023-01-09T14:00:44.378Z,1.00
2023-01-09T14:03:23.681Z,1.00
2023-01-09T14:06:16.219Z,1.00
2023-01-09T14:08:48.231Z,1.00
2023-01-09T14:11:27.396Z,1.00
2023-01-09T14:14:15.975Z,1.00
2023-01-09T14:16:45.310Z,1.00
2023-01-09T14:19:43.712Z,1.00
2023-01-09T14:22:28.103Z,1.00
2023-01-09T14:25:05.298Z,1.00
2023-01-09T14:28:08.378Z,1.00
2023-01-09T14:30:38.811Z,1.00
2023-01-09T14:33:27.241Z,1.00
2023-01-09T14:36:04.703Z,1.00
2023-01-09T14:38:36.696Z,1.00
2023-01-09T14:41:18.288Z,1.00
2023-01-09T14:43:55.839Z,1.00
2023-01-09T14:46:26.573Z,1.00
2023-01-09T14:49:07.669Z,1.00
2023-01-09T14:51:44.599Z,1.00
2023-01-09T14:54:29.956Z,1.00
2023-01-09T14:57:01.149Z,1.00
2023-01-09T14:59:31.918Z,1.00
2023-01-09T15:02:00.654Z,1.00
2023-01-09T15:04:35.399Z,1.00
2023-01-09T15:07:04.597Z,1.00
2023-01-09T15:09:39.638Z,1.00
2023-01-09T15:12:11.325Z,1.00
2023-01-09T15:14:41.819Z,1.00
2023-01-09T15:17:20.641Z,1.00
2023-01-09T15:19:49.490Z,1.00
2023-01-09T15:22:30.775Z,1.00
2023-01-09T15:24:59.628Z,1.00
2023-01-09T15:27:34.773Z,1.00
2023-01-09T15:30:17.928Z,1.00
2023-01-09T15:32:50.436Z,1.00
2023-01-09T15:35:24.489Z,1.00
2023-01-09T15:37:57.699Z,1.00
2023-01-09T15:40:32.725Z,1.00
2023-01-09T15:43:04.494Z,1.00
2023-01-09T15:45:37.278Z,1.00
2023-01-09T15:48:24.127Z,1.00
2023-01-09T15:50:56.538Z,1.00
2023-01-09T15:53:26.550Z,1.00
2023-01-09T15:56:14.964Z,1.00
2023-01-09T15:58:47.675Z,1.00
2023-01-09T16:01:29.849Z,1.00
2023-01-09T16:04:05.655Z,1.00
2023-01-09T16:06:35.869Z,1.00
2023-01-09T16:09:05.442Z,1.00
2023-01-09T16:11:35.747Z,1.00
2023-01-09T16:14:15.923Z,1.00
2023-01-09T16:16:44.158Z,1.00
2023-01-09T16:19:33.020Z,1.00
2023-01-09T16:22:02.299Z,1.00
2023-01-09T16:24:40.139Z,1.00
2023-01-09T16:27:27.274Z,1.00
2023-01-09T16:29:58.744Z,1.00
2023-01-09T16:32:30.102Z,1.00
2023-01-09T16:34:59.879Z,1.00
2023-01-09T16:37:29.303Z,1.00
2023-01-09T16:40:28.605Z,1.00
2023-01-09T16:43:02.037Z,1.00
2023-01-09T16:45:34.263Z,1.00
2023-01-09T16:48:03.072Z,1.00
2023-01-09T16:50:31.234Z,1.00
2023-01-09T16:53:00.653Z,1.00
2023-01-09T16:55:28.867Z,1.00
2023-01-09T16:57:57.039Z,1.00
2023-01-09T17:00:25.307Z,1.00
2023-01-09T17:02:56.571Z,1.00
2023-01-09T17:05:24.801Z,1.00
2023-01-09T17:07:52.968Z,1.00
2023-01-09T17:10:23.237Z,1.00
2023-01-09T17:12:51.415Z,1.00
2023-01-09T17:15:19.544Z,1.00
2023-01-09T17:17:47.662Z,1.00
2023-01-09T17:20:18.675Z,1.00
2023-01-09T17:22:46.827Z,1.00
2023-01-09T17:25:33.613Z,23.20
2023-01-09T17:28:20.611Z,1.00
2023-01-09T17:30:48.798Z,1.00
2023-01-09T17:33:18.561Z,1.00
2023-01-09T17:35:48.238Z,1.00
2023-01-09T17:38:16.802Z,1.00
2023-01-09T17:40:45.671Z,8.50
2023-01-09T17:43:14.391Z,26.50
2023-01-09T17:45:47.796Z,29.40
2023-01-09T17:48:17.652Z,18.10
2023-01-09T17:50:48.493Z,11.70
2023-01-09T17:53:17.820Z,50.80
2023-01-09T17:55:46.299Z,32.00
2023-01-09T17:58:26.378Z,63.00
2023-01-09T18:00:54.723Z,28.30
2023-01-09T18:03:25.891Z,1.00
2023-01-09T18:05:55.464Z,1.00
2023-01-09T18:08:23.671Z,1.00
2023-01-09T18:10:51.891Z,1.00
2023-01-09T18:13:20.112Z,9.10
2023-01-09T18:15:48.820Z,15.10
2023-01-09T18:18:17.297Z,1.00
2023-01-09T18:20:46.468Z,11.70
2023-01-09T18:23:16.869Z,28.80
2023-01-09T18:25:45.387Z,10.00
2023-01-09T18:28:15.319Z,17.70
2023-01-09T18:30:45.551Z,1.00
2023-01-09T18:33:14.055Z,1.00
2023-01-09T18:35:42.743Z,1.00
2023-01-09T18:38:11.282Z,1.00
2023-01-09T18:40:41.706Z,1.00
2023-01-09T18:43:11.523Z,1.00
2023-01-09T18:45:39.902Z,1.00
2023-01-09T18:48:09.546Z,1.00
2023-01-09T18:50:37.747Z,1.00
2023-01-09T18:53:06.355Z,1.00
2023-01-09T18:55:37.044Z,1.00
2023-01-09T18:58:07.608Z,1.00
2023-01-09T19:00:36.662Z,1.00
2023-01-09T19:03:04.826Z,1.00
2023-01-09T19:05:33.617Z,1.00
2023-01-09T19:08:01.786Z,1.00
2023-01-09T19:10:29.919Z,1.00
2023-01-09T19:12:58.064Z,1.00
2023-01-09T19:15:29.834Z,1.00
2023-01-09T19:17:58.513Z,1.00
2023-01-09T19:20:26.652Z,1.00
2023-01-09T19:22:57.247Z,1.00
2023-01-09T19:25:25.488Z,1.00
2023-01-09T19:27:56.043Z,1.00
2023-01-09T19:30:24.248Z,1.00
2023-01-09T19:32:53.921Z,1.00
2023-01-09T19:35:22.170Z,1.00
2023-01-09T19:37:50.397Z,1.00
2023-01-09T19:40:18.934Z,1.00
2023-01-09T19:42:47.671Z,1.00
2023-01-09T19:45:16.060Z,1.00
2023-01-09T19:47:45.419Z,1.00
2023-01-09T19:50:15.058Z,1.00
2023-01-09T19:52:44.162Z,1.00
2023-01-09T19:55:13.674Z,1.00
2023-01-09T19:57:42.868Z,1.00
2023-01-09T20:00:13.498Z,1.00
2023-01-09T20:02:41.972Z,1.00
2023-01-09T20:05:11.013Z,1.00
2023-01-09T20:07:41.885Z,1.00
2023-01-09T20:10:11.075Z,1.00
2023-01-09T20:12:39.328Z,1.00
2023-01-09T20:15:12.710Z,1.00
2023-01-09T20:17:40.915Z,1.00
2023-01-09T20:20:10.721Z,1.00
2023-01-09T20:22:40.289Z,1.00
2023-01-09T20:25:10.474Z,1.00
2023-01-09T20:27:38.795Z,1.00
2023-01-09T20:30:08.393Z,1.00
2023-01-09T20:32:37.983Z,1.00
2023-01-09T20:35:06.684Z,1.00
2023-01-09T20:37:34.810Z,1.00
2023-01-09T20:40:04.681Z,1.00
2023-01-09T20:42:32.892Z,1.00
2023-01-09T20:45:01.023Z,1.00
2023-01-09T20:47:29.808Z,1.00
2023-01-09T20:49:57.926Z,1.00
2023-01-09T20:52:26.078Z,1.00
2023-01-09T20:54:54.279Z,1.00
2023-01-09T20:57:23.826Z,1.00
2023-01-09T20:59:52.033Z,1.00
2023-01-09T21:02:22.257Z,1.00
2023-01-09T21:04:50.557Z,1.00
2023-01-09T21:07:18.709Z,1.00
2023-01-09T21:09:47.060Z,1.00
2023-01-09T21:12:34.614Z,1.00
2023-01-09T21:15:05.599Z,1.00
2023-01-09T21:17:34.822Z,1.00
2023-01-09T21:20:03.211Z,1.00
2023-01-09T21:22:33.337Z,1.00
2023-01-09T21:25:01.581Z,1.00
2023-01-09T21:27:31.378Z,1.00
2023-01-09T21:29:59.663Z,1.00
2023-01-09T21:32:32.792Z,1.00
2023-01-09T21:35:04.362Z,1.00
2023-01-09T21:37:33.320Z,1.00
2023-01-09T21:40:01.784Z,1.00
2023-01-09T21:42:47.544Z,1.00
2023-01-09T21:45:34.248Z,1.00
2023-01-09T21:48:06.038Z,1.00
2023-01-09T21:50:35.359Z,1.00
2023-01-09T21:53:03.986Z,1.00
2023-01-09T21:55:32.824Z,1.00
2023-01-09T21:58:02.090Z,1.00
2023-01-09T22:00:30.946Z,1.00
2023-01-09T22:02:59.111Z,1.00
2023-01-09T22:05:28.877Z,1.00
2023-01-09T22:07:57.385Z,1.00
2023-01-09T22:10:25.563Z,1.00
2023-01-09T22:13:11.399Z,1.00
2023-01-09T22:15:41.276Z,1.00
2023-01-09T22:18:09.655Z,1.00
2023-01-09T22:20:39.194Z,1.00
2023-01-09T22:23:07.374Z,1.00
2023-01-09T22:25:38.069Z,1.00
2023-01-09T22:28:06.926Z,1.00
2023-01-09T22:30:35.111Z,1.00
2023-01-09T22:33:03.231Z,1.00
2023-01-09T22:35:31.374Z,1.00
2023-01-09T22:38:01.135Z,1.00
2023-01-09T22:40:29.293Z,1.00
2023-01-09T22:42:57.472Z,1.00
2023-01-09T22:45:25.768Z,1.00
2023-01-09T22:47:53.915Z,1.00
2023-01-09T22:50:22.160Z,1.00
2023-01-09T22:52:51.472Z,1.00
2023-01-09T22:55:21.080Z,1.00
2023-01-09T22:57:49.229Z,1.00
2023-01-09T23:00:18.172Z,1.00
2023-01-09T23:02:46.457Z,1.00
2023-01-09T23:05:14.694Z,1.00
2023-01-09T23:07:42.857Z,1.00
2023-01-09T23:10:11.949Z,1.00
2023-01-09T23:12:46.710Z,1.00
2023-01-09T23:15:14.869Z,1.00
2023-01-09T23:17:43.044Z,1.00
2023-01-09T23:20:12.482Z,1.00
2023-01-09T23:22:40.656Z,1.00
2023-01-09T23:25:09.694Z,1.00
2023-01-09T23:27:37.876Z,1.00
2023-01-09T23:30:08.660Z,1.00
2023-01-09T23:32:37.082Z,1.00
2023-01-09T23:35:05.825Z,1.00
2023-01-09T23:37:33.970Z,1.00
2023-01-09T23:40:02.155Z,1.00
2023-01-09T23:42:44.195Z,1.00
2023-01-09T23:45:13.916Z,1.00
2023-01-09T23:47:42.072Z,1.00
2023-01-09T23:50:12.222Z,1.00
2023-01-09T23:52:40.468Z,1.00
2023-01-09T23:55:10.971Z,1.00
2023-01-09T23:57:39.145Z,1.00
